sensor_id;sensor_type;location;lat;lon;timestamp;P1;durP1;ratioP1;P2;durP2;ratioP2
34212;SDS011;20477;51.390;8.102;2023-08-06T00:01:26;4.00;;;3.28;;
34212;SDS011;20477;51.390;8.102;2023-08-06T00:03:55;7.03;;;3.38;;
34212;SDS011;20477;51.390;8.102;2023-08-06T00:06:23;7.97;;;3.65;;
34212;SDS011;20477;51.390;8.102;2023-08-06T00:08:52;4.65;;;3.25;;
34212;SDS011;20477;51.390;8.102;2023-08-06T00:11:21;8.00;;;3.72;;
34212;SDS011;20477;51.390;8.102;2023-08-06T00:13:49;4.07;;;3.55;;
34212;SDS011;20477;51.390;8.102;2023-08-06T00:16:17;3.70;;;3.30;;
34212;SDS011;20477;51.390;8.102;2023-08-06T00:18:45;3.55;;;3.00;;
34212;SDS011;20477;51.390;8.102;2023-08-06T00:21:13;5.53;;;3.28;;
34212;SDS011;20477;51.390;8.102;2023-08-06T00:23:42;4.78;;;2.97;;
34212;SDS011;20477;51.390;8.102;2023-08-06T00:26:11;6.57;;;3.03;;
34212;SDS011;20477;51.390;8.102;2023-08-06T00:28:40;5.15;;;3.20;;
34212;SDS011;20477;51.390;8.102;2023-08-06T00:31:08;5.95;;;3.10;;
34212;SDS011;20477;51.390;8.102;2023-08-06T00:33:36;4.35;;;2.97;;
34212;SDS011;20477;51.390;8.102;2023-08-06T00:36:05;4.53;;;3.35;;
34212;SDS011;20477;51.390;8.102;2023-08-06T00:38:33;5.88;;;3.50;;
34212;SDS011;20477;51.390;8.102;2023-08-06T00:41:01;6.00;;;3.58;;
34212;SDS011;20477;51.390;8.102;2023-08-06T00:43:31;6.30;;;3.50;;
34212;SDS011;20477;51.390;8.102;2023-08-06T00:45:59;4.85;;;3.17;;
34212;SDS011;20477;51.390;8.102;2023-08-06T00:48:27;4.55;;;3.17;;
34212;SDS011;20477;51.390;8.102;2023-08-06T00:50:56;6.65;;;3.63;;
34212;SDS011;20477;51.390;8.102;2023-08-06T00:53:24;4.57;;;3.00;;
34212;SDS011;20477;51.390;8.102;2023-08-06T00:55:52;4.00;;;3.20;;
34212;SDS011;20477;51.390;8.102;2023-08-06T00:58:20;4.60;;;3.15;;
34212;SDS011;20477;51.390;8.102;2023-08-06T01:00:50;6.22;;;2.70;;
34212;SDS011;20477;51.390;8.102;2023-08-06T01:03:18;7.68;;;3.33;;
34212;SDS011;20477;51.390;8.102;2023-08-06T01:05:47;6.85;;;3.63;;
34212;SDS011;20477;51.390;8.102;2023-08-06T01:08:18;3.97;;;3.17;;
34212;SDS011;20477;51.390;8.102;2023-08-06T01:10:54;4.05;;;3.13;;
34212;SDS011;20477;51.390;8.102;2023-08-06T01:13:31;5.88;;;3.28;;
34212;SDS011;20477;51.390;8.102;2023-08-06T01:16:02;8.10;;;3.22;;
34212;SDS011;20477;51.390;8.102;2023-08-06T01:18:33;7.30;;;3.50;;
34212;SDS011;20477;51.390;8.102;2023-08-06T01:21:03;3.85;;;3.45;;
34212;SDS011;20477;51.390;8.102;2023-08-06T01:23:31;7.30;;;3.92;;
34212;SDS011;20477;51.390;8.102;2023-08-06T01:26:02;6.07;;;3.72;;
34212;SDS011;20477;51.390;8.102;2023-08-06T01:28:36;9.80;;;3.60;;
34212;SDS011;20477;51.390;8.102;2023-08-06T01:31:10;5.30;;;3.55;;
34212;SDS011;20477;51.390;8.102;2023-08-06T01:33:43;5.03;;;3.70;;
34212;SDS011;20477;51.390;8.102;2023-08-06T01:36:15;5.43;;;4.00;;
34212;SDS011;20477;51.390;8.102;2023-08-06T01:38:44;6.63;;;4.15;;
34212;SDS011;20477;51.390;8.102;2023-08-06T01:41:12;6.80;;;3.95;;
34212;SDS011;20477;51.390;8.102;2023-08-06T01:43:40;11.15;;;4.30;;
34212;SDS011;20477;51.390;8.102;2023-08-06T01:46:09;7.30;;;4.00;;
34212;SDS011;20477;51.390;8.102;2023-08-06T01:48:37;4.70;;;4.10;;
34212;SDS011;20477;51.390;8.102;2023-08-06T01:51:05;6.53;;;3.80;;
34212;SDS011;20477;51.390;8.102;2023-08-06T01:53:35;6.13;;;3.78;;
34212;SDS011;20477;51.390;8.102;2023-08-06T01:56:03;5.63;;;4.13;;
34212;SDS011;20477;51.390;8.102;2023-08-06T01:58:31;4.97;;;4.00;;
34212;SDS011;20477;51.390;8.102;2023-08-06T02:01:00;9.05;;;4.32;;
34212;SDS011;20477;51.390;8.102;2023-08-06T02:03:28;6.88;;;4.20;;
34212;SDS011;20477;51.390;8.102;2023-08-06T02:05:57;6.40;;;4.55;;
34212;SDS011;20477;51.390;8.102;2023-08-06T02:08:25;5.10;;;4.60;;
34212;SDS011;20477;51.390;8.102;2023-08-06T02:10:56;5.30;;;4.47;;
34212;SDS011;20477;51.390;8.102;2023-08-06T02:13:24;5.90;;;4.00;;
34212;SDS011;20477;51.390;8.102;2023-08-06T02:15:52;8.23;;;3.65;;
34212;SDS011;20477;51.390;8.102;2023-08-06T02:18:20;6.30;;;4.30;;
34212;SDS011;20477;51.390;8.102;2023-08-06T02:20:54;5.03;;;4.13;;
34212;SDS011;20477;51.390;8.102;2023-08-06T02:23:23;13.52;;;4.10;;
34212;SDS011;20477;51.390;8.102;2023-08-06T02:25:58;8.82;;;4.18;;
34212;SDS011;20477;51.390;8.102;2023-08-06T02:28:27;5.20;;;3.72;;
34212;SDS011;20477;51.390;8.102;2023-08-06T02:30:55;8.63;;;4.47;;
34212;SDS011;20477;51.390;8.102;2023-08-06T02:33:23;6.40;;;3.97;;
34212;SDS011;20477;51.390;8.102;2023-08-06T02:35:54;3.88;;;3.47;;
34212;SDS011;20477;51.390;8.102;2023-08-06T02:38:26;9.30;;;4.63;;
34212;SDS011;20477;51.390;8.102;2023-08-06T02:40:54;8.43;;;4.35;;
34212;SDS011;20477;51.390;8.102;2023-08-06T02:43:24;6.97;;;4.10;;
34212;SDS011;20477;51.390;8.102;2023-08-06T02:45:56;12.57;;;4.00;;
34212;SDS011;20477;51.390;8.102;2023-08-06T02:48:24;5.97;;;4.57;;
34212;SDS011;20477;51.390;8.102;2023-08-06T02:50:52;5.10;;;3.72;;
34212;SDS011;20477;51.390;8.102;2023-08-06T02:53:24;8.52;;;4.53;;
34212;SDS011;20477;51.390;8.102;2023-08-06T02:55:52;9.02;;;4.43;;
34212;SDS011;20477;51.390;8.102;2023-08-06T02:58:20;6.95;;;3.83;;
34212;SDS011;20477;51.390;8.102;2023-08-06T03:01:00;5.90;;;4.22;;
34212;SDS011;20477;51.390;8.102;2023-08-06T03:03:29;13.13;;;4.57;;
34212;SDS011;20477;51.390;8.102;2023-08-06T03:05:57;9.32;;;4.57;;
34212;SDS011;20477;51.390;8.102;2023-08-06T03:08:25;12.80;;;4.90;;
34212;SDS011;20477;51.390;8.102;2023-08-06T03:10:54;12.85;;;5.25;;
34212;SDS011;20477;51.390;8.102;2023-08-06T03:13:22;5.75;;;4.55;;
34212;SDS011;20477;51.390;8.102;2023-08-06T03:15:53;10.43;;;4.68;;
34212;SDS011;20477;51.390;8.102;2023-08-06T03:18:23;6.10;;;4.47;;
34212;SDS011;20477;51.390;8.102;2023-08-06T03:20:52;6.75;;;4.60;;
34212;SDS011;20477;51.390;8.102;2023-08-06T03:23:20;6.22;;;4.65;;
34212;SDS011;20477;51.390;8.102;2023-08-06T03:25:49;7.65;;;4.68;;
34212;SDS011;20477;51.390;8.102;2023-08-06T03:28:17;10.23;;;4.35;;
34212;SDS011;20477;51.390;8.102;2023-08-06T03:30:45;8.10;;;5.25;;
34212;SDS011;20477;51.390;8.102;2023-08-06T03:33:13;6.03;;;3.88;;
34212;SDS011;20477;51.390;8.102;2023-08-06T03:35:42;9.43;;;4.70;;
34212;SDS011;20477;51.390;8.102;2023-08-06T03:38:10;6.70;;;4.97;;
34212;SDS011;20477;51.390;8.102;2023-08-06T03:40:39;7.22;;;4.82;;
34212;SDS011;20477;51.390;8.102;2023-08-06T03:43:07;14.35;;;5.15;;
34212;SDS011;20477;51.390;8.102;2023-08-06T03:45:35;8.32;;;4.55;;
34212;SDS011;20477;51.390;8.102;2023-08-06T03:48:03;9.45;;;5.30;;
34212;SDS011;20477;51.390;8.102;2023-08-06T03:50:31;7.57;;;5.20;;
34212;SDS011;20477;51.390;8.102;2023-08-06T03:53:01;8.57;;;5.05;;
34212;SDS011;20477;51.390;8.102;2023-08-06T03:55:29;7.03;;;5.13;;
34212;SDS011;20477;51.390;8.102;2023-08-06T03:57:57;5.85;;;4.53;;
34212;SDS011;20477;51.390;8.102;2023-08-06T04:00:26;7.03;;;4.50;;
34212;SDS011;20477;51.390;8.102;2023-08-06T04:02:54;6.78;;;4.35;;
34212;SDS011;20477;51.390;8.102;2023-08-06T04:05:22;6.57;;;4.70;;
34212;SDS011;20477;51.390;8.102;2023-08-06T04:07:50;7.05;;;5.10;;
34212;SDS011;20477;51.390;8.102;2023-08-06T04:10:20;5.65;;;4.20;;
34212;SDS011;20477;51.390;8.102;2023-08-06T04:12:48;7.82;;;4.60;;
34212;SDS011;20477;51.390;8.102;2023-08-06T04:15:16;5.65;;;4.60;;
34212;SDS011;20477;51.390;8.102;2023-08-06T04:17:44;6.20;;;5.07;;
34212;SDS011;20477;51.390;8.102;2023-08-06T04:20:12;9.90;;;5.13;;
34212;SDS011;20477;51.390;8.102;2023-08-06T04:22:41;15.75;;;5.43;;
34212;SDS011;20477;51.390;8.102;2023-08-06T04:25:09;6.75;;;4.47;;
34212;SDS011;20477;51.390;8.102;2023-08-06T04:27:38;6.00;;;4.55;;
34212;SDS011;20477;51.390;8.102;2023-08-06T04:30:08;9.35;;;4.45;;
34212;SDS011;20477;51.390;8.102;2023-08-06T04:32:39;5.20;;;4.30;;
34212;SDS011;20477;51.390;8.102;2023-08-06T04:35:07;6.68;;;4.35;;
34212;SDS011;20477;51.390;8.102;2023-08-06T04:37:35;7.80;;;4.40;;
34212;SDS011;20477;51.390;8.102;2023-08-06T04:40:04;9.63;;;4.65;;
34212;SDS011;20477;51.390;8.102;2023-08-06T04:42:33;9.07;;;4.43;;
34212;SDS011;20477;51.390;8.102;2023-08-06T04:45:02;4.15;;;3.35;;
34212;SDS011;20477;51.390;8.102;2023-08-06T04:47:31;6.75;;;3.45;;
34212;SDS011;20477;51.390;8.102;2023-08-06T04:49:59;6.75;;;3.20;;
34212;SDS011;20477;51.390;8.102;2023-08-06T04:52:27;3.75;;;3.35;;
34212;SDS011;20477;51.390;8.102;2023-08-06T04:54:55;4.80;;;3.10;;
34212;SDS011;20477;51.390;8.102;2023-08-06T04:57:24;5.30;;;3.55;;
34212;SDS011;20477;51.390;8.102;2023-08-06T04:59:52;6.65;;;3.03;;
34212;SDS011;20477;51.390;8.102;2023-08-06T05:02:21;3.90;;;2.97;;
34212;SDS011;20477;51.390;8.102;2023-08-06T05:04:49;5.80;;;3.47;;
34212;SDS011;20477;51.390;8.102;2023-08-06T05:07:18;6.20;;;3.90;;
34212;SDS011;20477;51.390;8.102;2023-08-06T05:09:46;4.43;;;3.67;;
34212;SDS011;20477;51.390;8.102;2023-08-06T05:12:14;5.50;;;3.53;;
34212;SDS011;20477;51.390;8.102;2023-08-06T05:14:42;4.75;;;3.20;;
34212;SDS011;20477;51.390;8.102;2023-08-06T05:17:10;6.28;;;3.08;;
34212;SDS011;20477;51.390;8.102;2023-08-06T05:19:40;4.70;;;2.95;;
34212;SDS011;20477;51.390;8.102;2023-08-06T05:22:08;5.97;;;3.72;;
34212;SDS011;20477;51.390;8.102;2023-08-06T05:24:36;8.20;;;3.15;;
34212;SDS011;20477;51.390;8.102;2023-08-06T05:27:04;4.47;;;3.13;;
34212;SDS011;20477;51.390;8.102;2023-08-06T05:29:33;4.75;;;2.80;;
34212;SDS011;20477;51.390;8.102;2023-08-06T05:32:01;5.90;;;2.95;;
34212;SDS011;20477;51.390;8.102;2023-08-06T05:34:30;3.28;;;2.70;;
34212;SDS011;20477;51.390;8.102;2023-08-06T05:36:59;4.20;;;2.78;;
34212;SDS011;20477;51.390;8.102;2023-08-06T05:39:27;4.72;;;2.38;;
34212;SDS011;20477;51.390;8.102;2023-08-06T05:41:55;5.78;;;2.50;;
34212;SDS011;20477;51.390;8.102;2023-08-06T05:44:23;2.88;;;2.08;;
34212;SDS011;20477;51.390;8.102;2023-08-06T05:46:51;8.70;;;2.40;;
34212;SDS011;20477;51.390;8.102;2023-08-06T05:49:19;3.42;;;2.03;;
34212;SDS011;20477;51.390;8.102;2023-08-06T05:51:47;5.03;;;1.98;;
34212;SDS011;20477;51.390;8.102;2023-08-06T05:54:18;5.28;;;2.10;;
34212;SDS011;20477;51.390;8.102;2023-08-06T05:56:46;6.38;;;2.15;;
34212;SDS011;20477;51.390;8.102;2023-08-06T05:59:14;3.95;;;1.98;;
34212;SDS011;20477;51.390;8.102;2023-08-06T06:01:42;5.25;;;1.98;;
34212;SDS011;20477;51.390;8.102;2023-08-06T06:04:11;4.32;;;1.88;;
34212;SDS011;20477;51.390;8.102;2023-08-06T06:06:39;3.88;;;2.20;;
34212;SDS011;20477;51.390;8.102;2023-08-06T06:09:08;4.00;;;1.90;;
34212;SDS011;20477;51.390;8.102;2023-08-06T06:11:37;2.90;;;1.60;;
34212;SDS011;20477;51.390;8.102;2023-08-06T06:14:05;3.58;;;2.15;;
34212;SDS011;20477;51.390;8.102;2023-08-06T06:16:33;6.03;;;2.05;;
34212;SDS011;20477;51.390;8.102;2023-08-06T06:19:02;9.52;;;2.13;;
34212;SDS011;20477;51.390;8.102;2023-08-06T06:21:29;7.47;;;2.05;;
34212;SDS011;20477;51.390;8.102;2023-08-06T06:23:59;6.50;;;2.03;;
34212;SDS011;20477;51.390;8.102;2023-08-06T06:26:27;7.22;;;2.28;;
34212;SDS011;20477;51.390;8.102;2023-08-06T06:28:57;15.18;;;2.17;;
34212;SDS011;20477;51.390;8.102;2023-08-06T06:31:26;4.22;;;2.10;;
34212;SDS011;20477;51.390;8.102;2023-08-06T06:33:54;5.03;;;2.33;;
34212;SDS011;20477;51.390;8.102;2023-08-06T06:36:22;8.55;;;2.10;;
34212;SDS011;20477;51.390;8.102;2023-08-06T06:38:50;6.57;;;2.38;;
34212;SDS011;20477;51.390;8.102;2023-08-06T06:41:18;5.80;;;2.38;;
34212;SDS011;20477;51.390;8.102;2023-08-06T06:43:46;6.75;;;2.17;;
34212;SDS011;20477;51.390;8.102;2023-08-06T06:46:16;8.57;;;2.75;;
34212;SDS011;20477;51.390;8.102;2023-08-06T06:48:44;5.75;;;2.15;;
34212;SDS011;20477;51.390;8.102;2023-08-06T06:51:12;4.03;;;1.90;;
34212;SDS011;20477;51.390;8.102;2023-08-06T06:53:40;5.47;;;2.00;;
34212;SDS011;20477;51.390;8.102;2023-08-06T06:56:09;6.38;;;1.83;;
34212;SDS011;20477;51.390;8.102;2023-08-06T06:58:37;8.98;;;1.90;;
34212;SDS011;20477;51.390;8.102;2023-08-06T07:01:07;6.85;;;2.10;;
34212;SDS011;20477;51.390;8.102;2023-08-06T07:03:39;4.55;;;2.13;;
34212;SDS011;20477;51.390;8.102;2023-08-06T07:06:07;4.50;;;1.55;;
34212;SDS011;20477;51.390;8.102;2023-08-06T07:08:36;4.38;;;1.65;;
34212;SDS011;20477;51.390;8.102;2023-08-06T07:11:04;3.17;;;1.40;;
34212;SDS011;20477;51.390;8.102;2023-08-06T07:13:33;5.38;;;1.73;;
34212;SDS011;20477;51.390;8.102;2023-08-06T07:16:02;7.68;;;1.95;;
34212;SDS011;20477;51.390;8.102;2023-08-06T07:18:30;5.20;;;1.77;;
34212;SDS011;20477;51.390;8.102;2023-08-06T07:21:00;7.30;;;1.63;;
34212;SDS011;20477;51.390;8.102;2023-08-06T07:23:28;5.72;;;2.03;;
34212;SDS011;20477;51.390;8.102;2023-08-06T07:25:56;3.42;;;1.90;;
34212;SDS011;20477;51.390;8.102;2023-08-06T07:28:24;4.43;;;1.73;;
34212;SDS011;20477;51.390;8.102;2023-08-06T07:30:52;6.25;;;2.10;;
34212;SDS011;20477;51.390;8.102;2023-08-06T07:33:20;6.15;;;2.08;;
34212;SDS011;20477;51.390;8.102;2023-08-06T07:35:48;8.75;;;2.03;;
34212;SDS011;20477;51.390;8.102;2023-08-06T07:38:18;3.55;;;1.35;;
34212;SDS011;20477;51.390;8.102;2023-08-06T07:40:46;6.80;;;2.08;;
34212;SDS011;20477;51.390;8.102;2023-08-06T07:43:14;4.25;;;1.95;;
34212;SDS011;20477;51.390;8.102;2023-08-06T07:45:42;5.97;;;1.80;;
34212;SDS011;20477;51.390;8.102;2023-08-06T07:48:10;3.72;;;1.70;;
34212;SDS011;20477;51.390;8.102;2023-08-06T07:50:40;3.38;;;1.98;;
34212;SDS011;20477;51.390;8.102;2023-08-06T07:53:08;5.63;;;1.67;;
34212;SDS011;20477;51.390;8.102;2023-08-06T07:55:37;3.60;;;1.50;;
34212;SDS011;20477;51.390;8.102;2023-08-06T07:58:05;5.57;;;2.17;;
34212;SDS011;20477;51.390;8.102;2023-08-06T08:00:33;4.60;;;1.58;;
34212;SDS011;20477;51.390;8.102;2023-08-06T08:03:02;5.00;;;2.08;;
34212;SDS011;20477;51.390;8.102;2023-08-06T08:05:30;7.43;;;1.98;;
34212;SDS011;20477;51.390;8.102;2023-08-06T08:07:58;6.75;;;2.10;;
34212;SDS011;20477;51.390;8.102;2023-08-06T08:10:26;3.95;;;1.30;;
34212;SDS011;20477;51.390;8.102;2023-08-06T08:12:56;3.92;;;1.50;;
34212;SDS011;20477;51.390;8.102;2023-08-06T08:15:24;3.88;;;1.35;;
34212;SDS011;20477;51.390;8.102;2023-08-06T08:17:53;5.40;;;1.98;;
34212;SDS011;20477;51.390;8.102;2023-08-06T08:20:21;8.35;;;1.55;;
34212;SDS011;20477;51.390;8.102;2023-08-06T08:22:49;4.53;;;1.80;;
34212;SDS011;20477;51.390;8.102;2023-08-06T08:25:17;3.67;;;1.80;;
34212;SDS011;20477;51.390;8.102;2023-08-06T08:27:45;4.22;;;1.65;;
34212;SDS011;20477;51.390;8.102;2023-08-06T08:30:15;5.03;;;2.15;;
34212;SDS011;20477;51.390;8.102;2023-08-06T08:32:43;3.42;;;1.70;;
34212;SDS011;20477;51.390;8.102;2023-08-06T08:35:11;3.60;;;1.60;;
34212;SDS011;20477;51.390;8.102;2023-08-06T08:37:40;3.65;;;1.85;;
34212;SDS011;20477;51.390;8.102;2023-08-06T08:40:08;4.15;;;1.85;;
34212;SDS011;20477;51.390;8.102;2023-08-06T08:42:37;7.18;;;2.28;;
34212;SDS011;20477;51.390;8.102;2023-08-06T08:45:06;4.35;;;1.83;;
34212;SDS011;20477;51.390;8.102;2023-08-06T08:47:41;4.47;;;1.90;;
34212;SDS011;20477;51.390;8.102;2023-08-06T08:50:10;3.35;;;1.65;;
34212;SDS011;20477;51.390;8.102;2023-08-06T08:52:39;3.25;;;1.65;;
34212;SDS011;20477;51.390;8.102;2023-08-06T08:55:08;2.95;;;1.60;;
34212;SDS011;20477;51.390;8.102;2023-08-06T08:57:36;4.63;;;1.50;;
34212;SDS011;20477;51.390;8.102;2023-08-06T09:00:05;1.60;;;1.30;;
34212;SDS011;20477;51.390;8.102;2023-08-06T09:02:34;3.67;;;1.55;;
34212;SDS011;20477;51.390;8.102;2023-08-06T09:05:04;3.47;;;1.25;;
34212;SDS011;20477;51.390;8.102;2023-08-06T09:07:37;2.72;;;1.33;;
34212;SDS011;20477;51.390;8.102;2023-08-06T09:10:11;3.15;;;1.52;;
34212;SDS011;20477;51.390;8.102;2023-08-06T09:12:40;5.45;;;1.20;;
34212;SDS011;20477;51.390;8.102;2023-08-06T09:15:09;4.15;;;1.30;;
34212;SDS011;20477;51.390;8.102;2023-08-06T09:17:37;2.53;;;1.00;;
34212;SDS011;20477;51.390;8.102;2023-08-06T09:20:10;2.47;;;1.23;;
34212;SDS011;20477;51.390;8.102;2023-08-06T09:22:39;6.40;;;1.25;;
34212;SDS011;20477;51.390;8.102;2023-08-06T09:25:08;2.28;;;1.15;;
34212;SDS011;20477;51.390;8.102;2023-08-06T09:27:37;1.95;;;1.33;;
34212;SDS011;20477;51.390;8.102;2023-08-06T09:30:05;2.83;;;1.25;;
34212;SDS011;20477;51.390;8.102;2023-08-06T09:32:46;2.40;;;1.27;;
34212;SDS011;20477;51.390;8.102;2023-08-06T09:35:19;2.08;;;1.27;;
34212;SDS011;20477;51.390;8.102;2023-08-06T09:37:47;5.95;;;1.40;;
34212;SDS011;20477;51.390;8.102;2023-08-06T09:40:25;5.32;;;1.92;;
34212;SDS011;20477;51.390;8.102;2023-08-06T09:42:54;5.20;;;1.90;;
34212;SDS011;20477;51.390;8.102;2023-08-06T09:45:22;3.00;;;1.42;;
34212;SDS011;20477;51.390;8.102;2023-08-06T09:47:50;2.55;;;1.20;;
34212;SDS011;20477;51.390;8.102;2023-08-06T09:52:55;2.58;;;1.30;;
34212;SDS011;20477;51.390;8.102;2023-08-06T09:55:24;2.25;;;1.08;;
34212;SDS011;20477;51.390;8.102;2023-08-06T09:57:53;1.90;;;1.30;;
34212;SDS011;20477;51.390;8.102;2023-08-06T10:00:21;3.05;;;1.80;;
34212;SDS011;20477;51.390;8.102;2023-08-06T10:02:50;4.43;;;1.92;;
34212;SDS011;20477;51.390;8.102;2023-08-06T10:05:21;2.17;;;1.40;;
34212;SDS011;20477;51.390;8.102;2023-08-06T10:07:51;3.33;;;1.50;;
34212;SDS011;20477;51.390;8.102;2023-08-06T10:10:19;3.00;;;1.33;;
34212;SDS011;20477;51.390;8.102;2023-08-06T10:12:48;4.40;;;1.20;;
34212;SDS011;20477;51.390;8.102;2023-08-06T10:15:19;3.03;;;1.60;;
34212;SDS011;20477;51.390;8.102;2023-08-06T10:17:50;5.05;;;1.38;;
34212;SDS011;20477;51.390;8.102;2023-08-06T10:20:19;1.73;;;1.13;;
34212;SDS011;20477;51.390;8.102;2023-08-06T10:23:00;2.95;;;1.20;;
34212;SDS011;20477;51.390;8.102;2023-08-06T10:25:32;5.25;;;1.88;;
34212;SDS011;20477;51.390;8.102;2023-08-06T10:28:06;2.80;;;1.33;;
34212;SDS011;20477;51.390;8.102;2023-08-06T10:30:41;3.63;;;1.80;;
34212;SDS011;20477;51.390;8.102;2023-08-06T10:33:09;3.42;;;2.10;;
34212;SDS011;20477;51.390;8.102;2023-08-06T10:35:38;1.42;;;0.88;;
34212;SDS011;20477;51.390;8.102;2023-08-06T10:38:12;1.60;;;1.20;;
34212;SDS011;20477;51.390;8.102;2023-08-06T10:40:43;0.93;;;0.80;;
34212;SDS011;20477;51.390;8.102;2023-08-06T10:43:26;3.22;;;1.20;;
34212;SDS011;20477;51.390;8.102;2023-08-06T10:45:55;4.32;;;1.30;;
34212;SDS011;20477;51.390;8.102;2023-08-06T10:48:28;1.20;;;1.08;;
34212;SDS011;20477;51.390;8.102;2023-08-06T10:50:59;2.42;;;1.20;;
34212;SDS011;20477;51.390;8.102;2023-08-06T10:53:29;3.17;;;1.00;;
34212;SDS011;20477;51.390;8.102;2023-08-06T10:55:59;2.13;;;1.10;;
34212;SDS011;20477;51.390;8.102;2023-08-06T10:58:31;4.47;;;1.30;;
34212;SDS011;20477;51.390;8.102;2023-08-06T11:01:00;1.60;;;1.00;;
34212;SDS011;20477;51.390;8.102;2023-08-06T11:03:28;2.58;;;1.40;;
34212;SDS011;20477;51.390;8.102;2023-08-06T11:05:56;1.88;;;0.90;;
34212;SDS011;20477;51.390;8.102;2023-08-06T11:08:25;12.00;;;1.35;;
34212;SDS011;20477;51.390;8.102;2023-08-06T11:10:54;3.38;;;1.30;;
34212;SDS011;20477;51.390;8.102;2023-08-06T11:13:29;4.03;;;1.73;;
34212;SDS011;20477;51.390;8.102;2023-08-06T11:15:58;4.70;;;1.50;;
34212;SDS011;20477;51.390;8.102;2023-08-06T11:18:26;2.35;;;1.40;;
34212;SDS011;20477;51.390;8.102;2023-08-06T11:20:55;7.65;;;2.00;;
34212;SDS011;20477;51.390;8.102;2023-08-06T11:23:26;6.13;;;1.38;;
34212;SDS011;20477;51.390;8.102;2023-08-06T11:25:56;3.60;;;1.60;;
34212;SDS011;20477;51.390;8.102;2023-08-06T11:28:24;3.72;;;1.20;;
34212;SDS011;20477;51.390;8.102;2023-08-06T11:30:53;6.78;;;1.73;;
34212;SDS011;20477;51.390;8.102;2023-08-06T11:33:24;2.15;;;1.40;;
34212;SDS011;20477;51.390;8.102;2023-08-06T11:35:53;2.42;;;1.10;;
34212;SDS011;20477;51.390;8.102;2023-08-06T11:38:24;4.28;;;1.40;;
34212;SDS011;20477;51.390;8.102;2023-08-06T11:40:52;2.70;;;1.30;;
34212;SDS011;20477;51.390;8.102;2023-08-06T11:43:22;2.80;;;1.60;;
34212;SDS011;20477;51.390;8.102;2023-08-06T11:45:50;8.05;;;1.90;;
34212;SDS011;20477;51.390;8.102;2023-08-06T11:48:20;3.58;;;1.90;;
34212;SDS011;20477;51.390;8.102;2023-08-06T11:50:49;4.75;;;2.53;;
34212;SDS011;20477;51.390;8.102;2023-08-06T11:53:17;5.30;;;2.22;;
34212;SDS011;20477;51.390;8.102;2023-08-06T11:55:45;5.72;;;2.22;;
34212;SDS011;20477;51.390;8.102;2023-08-06T11:58:13;6.80;;;2.40;;
34212;SDS011;20477;51.390;8.102;2023-08-06T12:00:46;7.40;;;2.53;;
34212;SDS011;20477;51.390;8.102;2023-08-06T12:03:14;8.30;;;3.05;;
34212;SDS011;20477;51.390;8.102;2023-08-06T12:05:43;3.85;;;2.05;;
34212;SDS011;20477;51.390;8.102;2023-08-06T12:08:13;4.50;;;2.22;;
34212;SDS011;20477;51.390;8.102;2023-08-06T12:10:41;5.97;;;3.20;;
34212;SDS011;20477;51.390;8.102;2023-08-06T12:13:09;6.10;;;2.63;;
34212;SDS011;20477;51.390;8.102;2023-08-06T12:15:37;6.38;;;2.38;;
34212;SDS011;20477;51.390;8.102;2023-08-06T12:18:07;6.20;;;2.58;;
34212;SDS011;20477;51.390;8.102;2023-08-06T12:20:35;5.10;;;2.97;;
34212;SDS011;20477;51.390;8.102;2023-08-06T12:23:05;4.10;;;2.90;;
34212;SDS011;20477;51.390;8.102;2023-08-06T12:25:33;5.00;;;2.72;;
34212;SDS011;20477;51.390;8.102;2023-08-06T12:28:01;11.75;;;3.03;;
34212;SDS011;20477;51.390;8.102;2023-08-06T12:30:29;5.35;;;3.55;;
34212;SDS011;20477;51.390;8.102;2023-08-06T12:32:57;5.93;;;2.90;;
34212;SDS011;20477;51.390;8.102;2023-08-06T12:35:27;7.88;;;3.75;;
34212;SDS011;20477;51.390;8.102;2023-08-06T12:37:55;4.07;;;2.28;;
34212;SDS011;20477;51.390;8.102;2023-08-06T12:40:24;5.50;;;2.53;;
34212;SDS011;20477;51.390;8.102;2023-08-06T12:43:03;5.80;;;2.15;;
34212;SDS011;20477;51.390;8.102;2023-08-06T12:45:31;7.15;;;2.03;;
34212;SDS011;20477;51.390;8.102;2023-08-06T12:47:59;4.85;;;1.58;;
34212;SDS011;20477;51.390;8.102;2023-08-06T12:50:29;6.93;;;2.00;;
34212;SDS011;20477;51.390;8.102;2023-08-06T12:52:59;4.53;;;2.17;;
34212;SDS011;20477;51.390;8.102;2023-08-06T12:55:27;3.65;;;1.90;;
34212;SDS011;20477;51.390;8.102;2023-08-06T12:57:58;4.57;;;1.70;;
34212;SDS011;20477;51.390;8.102;2023-08-06T13:00:26;5.25;;;2.00;;
34212;SDS011;20477;51.390;8.102;2023-08-06T13:02:55;3.70;;;1.60;;
34212;SDS011;20477;51.390;8.102;2023-08-06T13:05:23;5.60;;;2.22;;
34212;SDS011;20477;51.390;8.102;2023-08-06T13:07:53;4.70;;;1.90;;
34212;SDS011;20477;51.390;8.102;2023-08-06T13:10:21;3.92;;;1.58;;
34212;SDS011;20477;51.390;8.102;2023-08-06T13:12:50;3.72;;;2.03;;
34212;SDS011;20477;51.390;8.102;2023-08-06T13:15:18;4.15;;;1.65;;
34212;SDS011;20477;51.390;8.102;2023-08-06T13:17:48;4.10;;;3.10;;
34212;SDS011;20477;51.390;8.102;2023-08-06T13:20:16;4.30;;;3.28;;
34212;SDS011;20477;51.390;8.102;2023-08-06T13:22:46;8.32;;;3.97;;
34212;SDS011;20477;51.390;8.102;2023-08-06T13:25:18;7.70;;;4.18;;
34212;SDS011;20477;51.390;8.102;2023-08-06T13:27:47;5.28;;;4.10;;
34212;SDS011;20477;51.390;8.102;2023-08-06T13:30:15;4.65;;;4.00;;
34212;SDS011;20477;51.390;8.102;2023-08-06T13:32:44;8.20;;;3.90;;
34212;SDS011;20477;51.390;8.102;2023-08-06T13:35:13;8.00;;;4.32;;
34212;SDS011;20477;51.390;8.102;2023-08-06T13:37:41;7.65;;;5.05;;
34212;SDS011;20477;51.390;8.102;2023-08-06T13:40:09;7.85;;;4.82;;
34212;SDS011;20477;51.390;8.102;2023-08-06T13:42:39;5.95;;;5.35;;
34212;SDS011;20477;51.390;8.102;2023-08-06T13:45:07;4.85;;;4.30;;
34212;SDS011;20477;51.390;8.102;2023-08-06T13:47:36;4.63;;;3.80;;
34212;SDS011;20477;51.390;8.102;2023-08-06T13:50:05;4.18;;;2.70;;
34212;SDS011;20477;51.390;8.102;2023-08-06T13:52:33;2.65;;;2.40;;
34212;SDS011;20477;51.390;8.102;2023-08-06T13:55:02;2.45;;;2.25;;
34212;SDS011;20477;51.390;8.102;2023-08-06T13:57:31;1.73;;;1.60;;
34212;SDS011;20477;51.390;8.102;2023-08-06T14:00:00;1.42;;;1.33;;
34212;SDS011;20477;51.390;8.102;2023-08-06T14:02:29;1.80;;;1.27;;
34212;SDS011;20477;51.390;8.102;2023-08-06T14:04:57;2.00;;;1.70;;
34212;SDS011;20477;51.390;8.102;2023-08-06T14:07:25;4.03;;;1.30;;
34212;SDS011;20477;51.390;8.102;2023-08-06T14:09:53;1.70;;;1.60;;
34212;SDS011;20477;51.390;8.102;2023-08-06T14:12:23;1.10;;;1.00;;
34212;SDS011;20477;51.390;8.102;2023-08-06T14:14:51;2.42;;;1.50;;
34212;SDS011;20477;51.390;8.102;2023-08-06T14:17:21;2.17;;;1.33;;
34212;SDS011;20477;51.390;8.102;2023-08-06T14:19:49;2.45;;;1.05;;
34212;SDS011;20477;51.390;8.102;2023-08-06T14:22:18;1.25;;;1.15;;
34212;SDS011;20477;51.390;8.102;2023-08-06T14:24:46;1.85;;;1.00;;
34212;SDS011;20477;51.390;8.102;2023-08-06T14:27:14;2.88;;;0.90;;
34212;SDS011;20477;51.390;8.102;2023-08-06T14:29:42;1.33;;;0.90;;
34212;SDS011;20477;51.390;8.102;2023-08-06T14:32:11;1.52;;;0.70;;
34212;SDS011;20477;51.390;8.102;2023-08-06T14:34:40;1.08;;;0.57;;
34212;SDS011;20477;51.390;8.102;2023-08-06T14:37:08;1.35;;;0.73;;
34212;SDS011;20477;51.390;8.102;2023-08-06T14:39:36;4.10;;;0.90;;
34212;SDS011;20477;51.390;8.102;2023-08-06T14:42:04;0.73;;;0.57;;
34212;SDS011;20477;51.390;8.102;2023-08-06T14:44:33;1.42;;;0.80;;
34212;SDS011;20477;51.390;8.102;2023-08-06T14:47:01;6.22;;;1.17;;
34212;SDS011;20477;51.390;8.102;2023-08-06T14:49:29;0.85;;;0.80;;
34212;SDS011;20477;51.390;8.102;2023-08-06T14:51:59;2.65;;;0.77;;
34212;SDS011;20477;51.390;8.102;2023-08-06T14:54:28;1.15;;;0.70;;
34212;SDS011;20477;51.390;8.102;2023-08-06T14:56:56;3.15;;;0.80;;
34212;SDS011;20477;51.390;8.102;2023-08-06T14:59:25;2.33;;;0.55;;
34212;SDS011;20477;51.390;8.102;2023-08-06T15:01:53;2.20;;;0.80;;